sensor_id;sensor_type;location;lat;lon;timestamp;temperature;humidity
13458;DHT22;6801;53.018;11.560;2023-06-24T00:00:03;18.80;65.70
13458;DHT22;6801;53.018;11.560;2023-06-24T00:02:33;18.80;65.80
13458;DHT22;6801;53.018;11.560;2023-06-24T00:05:02;18.70;65.90
13458;DHT22;6801;53.018;11.560;2023-06-24T00:07:32;18.70;66.00
13458;DHT22;6801;53.018;11.560;2023-06-24T00:10:01;18.70;66.20
13458;DHT22;6801;53.018;11.560;2023-06-24T00:12:29;18.70;66.30
13458;DHT22;6801;53.018;11.560;2023-06-24T00:14:58;18.60;66.30
13458;DHT22;6801;53.018;11.560;2023-06-24T00:17:25;18.60;66.40
13458;DHT22;6801;53.018;11.560;2023-06-24T00:19:53;18.60;66.50
13458;DHT22;6801;53.018;11.560;2023-06-24T00:22:20;18.60;66.60
13458;DHT22;6801;53.018;11.560;2023-06-24T00:24:49;18.50;66.70
13458;DHT22;6801;53.018;11.560;2023-06-24T00:27:16;18.50;66.80
13458;DHT22;6801;53.018;11.560;2023-06-24T00:29:43;18.50;66.80
13458;DHT22;6801;53.018;11.560;2023-06-24T00:32:09;18.50;66.80
13458;DHT22;6801;53.018;11.560;2023-06-24T00:34:36;18.50;66.90
13458;DHT22;6801;53.018;11.560;2023-06-24T00:37:03;18.50;66.90
13458;DHT22;6801;53.018;11.560;2023-06-24T00:39:30;18.40;67.00
13458;DHT22;6801;53.018;11.560;2023-06-24T00:42:00;18.50;66.90
13458;DHT22;6801;53.018;11.560;2023-06-24T00:44:27;18.40;66.90
13458;DHT22;6801;53.018;11.560;2023-06-24T00:46:54;18.40;67.10
13458;DHT22;6801;53.018;11.560;2023-06-24T00:49:21;18.40;67.10
13458;DHT22;6801;53.018;11.560;2023-06-24T00:51:48;18.30;67.20
13458;DHT22;6801;53.018;11.560;2023-06-24T00:54:16;18.30;67.10
13458;DHT22;6801;53.018;11.560;2023-06-24T00:56:43;18.30;67.10
13458;DHT22;6801;53.018;11.560;2023-06-24T00:59:13;18.30;67.20
13458;DHT22;6801;53.018;11.560;2023-06-24T01:01:41;18.20;67.30
13458;DHT22;6801;53.018;11.560;2023-06-24T01:04:10;18.20;67.20
13458;DHT22;6801;53.018;11.560;2023-06-24T01:06:37;18.20;67.30
13458;DHT22;6801;53.018;11.560;2023-06-24T01:09:09;18.20;67.40
13458;DHT22;6801;53.018;11.560;2023-06-24T01:11:36;18.10;67.40
13458;DHT22;6801;53.018;11.560;2023-06-24T01:14:03;18.20;67.50
13458;DHT22;6801;53.018;11.560;2023-06-24T01:16:36;18.10;67.50
13458;DHT22;6801;53.018;11.560;2023-06-24T01:22:10;18.10;67.50
13458;DHT22;6801;53.018;11.560;2023-06-24T01:24:55;18.10;67.50
13458;DHT22;6801;53.018;11.560;2023-06-24T01:27:48;18.00;67.40
13458;DHT22;6801;53.018;11.560;2023-06-24T01:30:34;18.00;67.40
13458;DHT22;6801;53.018;11.560;2023-06-24T01:33:09;18.00;67.40
13458;DHT22;6801;53.018;11.560;2023-06-24T01:35:40;18.00;67.40
13458;DHT22;6801;53.018;11.560;2023-06-24T01:38:09;18.00;67.50
13458;DHT22;6801;53.018;11.560;2023-06-24T01:40:39;17.90;67.60
13458;DHT22;6801;53.018;11.560;2023-06-24T01:43:09;17.90;67.70
13458;DHT22;6801;53.018;11.560;2023-06-24T01:45:40;17.90;67.60
13458;DHT22;6801;53.018;11.560;2023-06-24T01:48:13;17.90;67.60
13458;DHT22;6801;53.018;11.560;2023-06-24T01:50:45;17.80;67.70
13458;DHT22;6801;53.018;11.560;2023-06-24T01:53:18;17.80;67.70
13458;DHT22;6801;53.018;11.560;2023-06-24T01:55:46;17.80;67.70
13458;DHT22;6801;53.018;11.560;2023-06-24T01:58:17;17.70;67.80
13458;DHT22;6801;53.018;11.560;2023-06-24T02:00:44;17.70;67.90
13458;DHT22;6801;53.018;11.560;2023-06-24T02:03:14;17.70;67.80
13458;DHT22;6801;53.018;11.560;2023-06-24T02:05:42;17.70;67.80
13458;DHT22;6801;53.018;11.560;2023-06-24T02:08:11;17.70;67.70
13458;DHT22;6801;53.018;11.560;2023-06-24T02:10:40;17.60;67.80
13458;DHT22;6801;53.018;11.560;2023-06-24T02:13:09;17.60;67.80
13458;DHT22;6801;53.018;11.560;2023-06-24T02:15:38;17.60;67.90
13458;DHT22;6801;53.018;11.560;2023-06-24T02:18:06;17.60;67.90
13458;DHT22;6801;53.018;11.560;2023-06-24T02:20:37;17.60;67.90
13458;DHT22;6801;53.018;11.560;2023-06-24T02:23:06;17.50;68.00
13458;DHT22;6801;53.018;11.560;2023-06-24T02:25:36;17.50;68.00
13458;DHT22;6801;53.018;11.560;2023-06-24T02:28:05;17.50;68.10
13458;DHT22;6801;53.018;11.560;2023-06-24T02:30:36;17.50;68.10
13458;DHT22;6801;53.018;11.560;2023-06-24T02:33:04;17.40;68.20
13458;DHT22;6801;53.018;11.560;2023-06-24T02:35:32;17.40;68.10
13458;DHT22;6801;53.018;11.560;2023-06-24T02:38:00;17.40;68.10
13458;DHT22;6801;53.018;11.560;2023-06-24T02:40:28;17.40;68.20
13458;DHT22;6801;53.018;11.560;2023-06-24T02:42:57;17.30;68.20
13458;DHT22;6801;53.018;11.560;2023-06-24T02:45:24;17.30;68.30
13458;DHT22;6801;53.018;11.560;2023-06-24T02:47:52;17.30;68.20
13458;DHT22;6801;53.018;11.560;2023-06-24T02:50:21;17.30;68.30
13458;DHT22;6801;53.018;11.560;2023-06-24T02:52:50;17.20;68.20
13458;DHT22;6801;53.018;11.560;2023-06-24T02:55:22;17.20;68.10
13458;DHT22;6801;53.018;11.560;2023-06-24T02:57:53;17.20;68.30
13458;DHT22;6801;53.018;11.560;2023-06-24T03:00:23;17.20;68.40
13458;DHT22;6801;53.018;11.560;2023-06-24T03:03:09;17.20;68.40
13458;DHT22;6801;53.018;11.560;2023-06-24T03:05:46;17.10;68.40
13458;DHT22;6801;53.018;11.560;2023-06-24T03:08:15;17.10;68.40
13458;DHT22;6801;53.018;11.560;2023-06-24T03:10:44;17.10;68.50
13458;DHT22;6801;53.018;11.560;2023-06-24T03:13:17;17.10;68.50
13458;DHT22;6801;53.018;11.560;2023-06-24T03:15:49;17.10;68.50
13458;DHT22;6801;53.018;11.560;2023-06-24T03:18:17;17.10;68.60
13458;DHT22;6801;53.018;11.560;2023-06-24T03:20:46;17.10;68.70
13458;DHT22;6801;53.018;11.560;2023-06-24T03:23:17;17.00;68.70
13458;DHT22;6801;53.018;11.560;2023-06-24T03:25:45;17.00;68.70
13458;DHT22;6801;53.018;11.560;2023-06-24T03:28:13;17.00;68.80
13458;DHT22;6801;53.018;11.560;2023-06-24T03:30:48;17.00;68.90
13458;DHT22;6801;53.018;11.560;2023-06-24T03:33:18;17.00;68.90
13458;DHT22;6801;53.018;11.560;2023-06-24T03:35:46;17.10;69.00
13458;DHT22;6801;53.018;11.560;2023-06-24T03:38:17;17.00;69.10
13458;DHT22;6801;53.018;11.560;2023-06-24T03:40:47;17.00;69.10
13458;DHT22;6801;53.018;11.560;2023-06-24T03:43:14;17.00;69.10
13458;DHT22;6801;53.018;11.560;2023-06-24T03:45:41;17.00;69.20
13458;DHT22;6801;53.018;11.560;2023-06-24T03:48:08;17.00;69.20
13458;DHT22;6801;53.018;11.560;2023-06-24T03:50:35;17.00;69.20
13458;DHT22;6801;53.018;11.560;2023-06-24T03:53:03;17.10;69.20
13458;DHT22;6801;53.018;11.560;2023-06-24T03:55:30;17.00;69.30
13458;DHT22;6801;53.018;11.560;2023-06-24T03:57:59;17.00;69.40
13458;DHT22;6801;53.018;11.560;2023-06-24T04:00:26;17.10;69.40
13458;DHT22;6801;53.018;11.560;2023-06-24T04:02:53;17.10;69.40
13458;DHT22;6801;53.018;11.560;2023-06-24T04:05:20;17.10;69.40
13458;DHT22;6801;53.018;11.560;2023-06-24T04:07:48;17.10;69.40
13458;DHT22;6801;53.018;11.560;2023-06-24T04:10:17;17.10;69.30
13458;DHT22;6801;53.018;11.560;2023-06-24T04:12:45;17.10;69.30
13458;DHT22;6801;53.018;11.560;2023-06-24T04:15:14;17.20;69.30
13458;DHT22;6801;53.018;11.560;2023-06-24T04:17:41;17.10;69.40
13458;DHT22;6801;53.018;11.560;2023-06-24T04:20:08;17.10;69.50
13458;DHT22;6801;53.018;11.560;2023-06-24T04:22:36;17.20;69.60
13458;DHT22;6801;53.018;11.560;2023-06-24T04:25:04;17.20;69.80
13458;DHT22;6801;53.018;11.560;2023-06-24T04:27:31;17.20;69.80
13458;DHT22;6801;53.018;11.560;2023-06-24T04:29:59;17.30;69.80
13458;DHT22;6801;53.018;11.560;2023-06-24T04:32:27;17.30;69.70
13458;DHT22;6801;53.018;11.560;2023-06-24T04:34:54;17.30;69.60
13458;DHT22;6801;53.018;11.560;2023-06-24T04:37:21;17.40;69.60
13458;DHT22;6801;53.018;11.560;2023-06-24T04:39:49;17.40;69.70
13458;DHT22;6801;53.018;11.560;2023-06-24T04:42:16;17.40;69.60
13458;DHT22;6801;53.018;11.560;2023-06-24T04:44:43;17.50;69.50
13458;DHT22;6801;53.018;11.560;2023-06-24T04:47:10;17.50;69.40
13458;DHT22;6801;53.018;11.560;2023-06-24T04:49:40;17.50;69.40
13458;DHT22;6801;53.018;11.560;2023-06-24T04:52:07;17.50;69.30
13458;DHT22;6801;53.018;11.560;2023-06-24T04:54:34;17.50;69.30
13458;DHT22;6801;53.018;11.560;2023-06-24T04:57:01;17.60;69.20
13458;DHT22;6801;53.018;11.560;2023-06-24T04:59:28;17.50;69.30
13458;DHT22;6801;53.018;11.560;2023-06-24T05:01:55;17.60;69.40
13458;DHT22;6801;53.018;11.560;2023-06-24T05:04:22;17.60;69.40
13458;DHT22;6801;53.018;11.560;2023-06-24T05:06:50;17.60;69.40
13458;DHT22;6801;53.018;11.560;2023-06-24T05:09:17;17.60;69.40
13458;DHT22;6801;53.018;11.560;2023-06-24T05:11:45;17.60;69.40
13458;DHT22;6801;53.018;11.560;2023-06-24T05:14:11;17.60;69.30
13458;DHT22;6801;53.018;11.560;2023-06-24T05:16:38;17.60;69.60
13458;DHT22;6801;53.018;11.560;2023-06-24T05:19:05;17.70;69.70
13458;DHT22;6801;53.018;11.560;2023-06-24T05:21:32;17.60;70.00
13458;DHT22;6801;53.018;11.560;2023-06-24T05:24:01;17.70;70.10
13458;DHT22;6801;53.018;11.560;2023-06-24T05:26:27;17.60;70.30
13458;DHT22;6801;53.018;11.560;2023-06-24T05:28:55;17.70;70.50
13458;DHT22;6801;53.018;11.560;2023-06-24T05:31:22;17.70;70.50
13458;DHT22;6801;53.018;11.560;2023-06-24T05:33:48;17.70;70.60
13458;DHT22;6801;53.018;11.560;2023-06-24T05:36:15;17.70;70.70
13458;DHT22;6801;53.018;11.560;2023-06-24T05:38:42;17.70;70.70
13458;DHT22;6801;53.018;11.560;2023-06-24T05:41:11;17.70;70.70
13458;DHT22;6801;53.018;11.560;2023-06-24T05:43:38;17.80;70.90
13458;DHT22;6801;53.018;11.560;2023-06-24T05:46:05;17.80;70.90
13458;DHT22;6801;53.018;11.560;2023-06-24T05:48:32;17.80;70.90
13458;DHT22;6801;53.018;11.560;2023-06-24T05:50:59;17.80;71.00
13458;DHT22;6801;53.018;11.560;2023-06-24T05:53:26;17.90;71.20
13458;DHT22;6801;53.018;11.560;2023-06-24T05:55:53;17.90;71.10
13458;DHT22;6801;53.018;11.560;2023-06-24T05:58:21;17.90;71.10
13458;DHT22;6801;53.018;11.560;2023-06-24T06:00:48;18.00;71.20
13458;DHT22;6801;53.018;11.560;2023-06-24T06:03:15;18.00;71.20
13458;DHT22;6801;53.018;11.560;2023-06-24T06:05:42;18.00;71.20
13458;DHT22;6801;53.018;11.560;2023-06-24T06:08:09;18.00;71.20
13458;DHT22;6801;53.018;11.560;2023-06-24T06:10:36;18.10;71.30
13458;DHT22;6801;53.018;11.560;2023-06-24T06:13:03;18.10;71.20
13458;DHT22;6801;53.018;11.560;2023-06-24T06:15:31;18.20;71.20
13458;DHT22;6801;53.018;11.560;2023-06-24T06:17:58;18.20;71.20
13458;DHT22;6801;53.018;11.560;2023-06-24T06:20:25;18.30;71.20
13458;DHT22;6801;53.018;11.560;2023-06-24T06:22:52;18.30;71.10
13458;DHT22;6801;53.018;11.560;2023-06-24T06:25:19;18.30;71.20
13458;DHT22;6801;53.018;11.560;2023-06-24T06:27:46;18.40;71.20
13458;DHT22;6801;53.018;11.560;2023-06-24T06:30:13;18.40;71.10
13458;DHT22;6801;53.018;11.560;2023-06-24T06:32:42;18.50;70.90
13458;DHT22;6801;53.018;11.560;2023-06-24T06:35:09;18.50;70.80
13458;DHT22;6801;53.018;11.560;2023-06-24T06:37:36;18.50;70.80
13458;DHT22;6801;53.018;11.560;2023-06-24T06:40:03;18.50;70.80
13458;DHT22;6801;53.018;11.560;2023-06-24T06:42:30;18.60;70.70
13458;DHT22;6801;53.018;11.560;2023-06-24T06:44:57;18.60;70.60
13458;DHT22;6801;53.018;11.560;2023-06-24T06:47:24;18.70;70.50
13458;DHT22;6801;53.018;11.560;2023-06-24T06:49:53;18.70;70.40
13458;DHT22;6801;53.018;11.560;2023-06-24T06:52:19;18.80;70.30
13458;DHT22;6801;53.018;11.560;2023-06-24T06:54:46;18.80;70.30
13458;DHT22;6801;53.018;11.560;2023-06-24T06:57:13;18.90;70.30
13458;DHT22;6801;53.018;11.560;2023-06-24T06:59:40;19.00;70.10
13458;DHT22;6801;53.018;11.560;2023-06-24T07:02:07;19.00;69.90
13458;DHT22;6801;53.018;11.560;2023-06-24T07:04:34;19.00;69.90
13458;DHT22;6801;53.018;11.560;2023-06-24T07:07:03;19.10;70.00
13458;DHT22;6801;53.018;11.560;2023-06-24T07:09:29;19.20;69.70
13458;DHT22;6801;53.018;11.560;2023-06-24T07:11:56;19.20;69.50
13458;DHT22;6801;53.018;11.560;2023-06-24T07:14:23;19.30;69.40
13458;DHT22;6801;53.018;11.560;2023-06-24T07:16:50;19.40;69.10
13458;DHT22;6801;53.018;11.560;2023-06-24T07:19:17;19.50;68.50
13458;DHT22;6801;53.018;11.560;2023-06-24T07:21:44;19.50;68.30
13458;DHT22;6801;53.018;11.560;2023-06-24T07:24:13;19.50;68.10
13458;DHT22;6801;53.018;11.560;2023-06-24T07:26:40;19.60;68.00
13458;DHT22;6801;53.018;11.560;2023-06-24T07:29:07;19.70;67.80
13458;DHT22;6801;53.018;11.560;2023-06-24T07:31:34;19.70;67.50
13458;DHT22;6801;53.018;11.560;2023-06-24T07:34:01;19.80;67.50
13458;DHT22;6801;53.018;11.560;2023-06-24T07:36:28;19.90;67.30
13458;DHT22;6801;53.018;11.560;2023-06-24T07:38:55;20.00;67.00
13458;DHT22;6801;53.018;11.560;2023-06-24T07:41:23;20.00;66.60
13458;DHT22;6801;53.018;11.560;2023-06-24T07:43:50;20.10;66.70
13458;DHT22;6801;53.018;11.560;2023-06-24T07:46:17;20.20;66.60
13458;DHT22;6801;53.018;11.560;2023-06-24T07:48:44;20.30;66.80
13458;DHT22;6801;53.018;11.560;2023-06-24T07:51:11;20.40;66.60
13458;DHT22;6801;53.018;11.560;2023-06-24T07:53:38;20.40;66.40
13458;DHT22;6801;53.018;11.560;2023-06-24T07:56:05;20.50;66.00
13458;DHT22;6801;53.018;11.560;2023-06-24T07:58:34;20.50;65.80
13458;DHT22;6801;53.018;11.560;2023-06-24T08:01:03;20.60;65.10
13458;DHT22;6801;53.018;11.560;2023-06-24T08:03:30;20.70;65.30
13458;DHT22;6801;53.018;11.560;2023-06-24T08:05:57;20.70;65.10
13458;DHT22;6801;53.018;11.560;2023-06-24T08:08:24;20.80;65.00
13458;DHT22;6801;53.018;11.560;2023-06-24T08:10:51;20.90;65.00
13458;DHT22;6801;53.018;11.560;2023-06-24T08:13:18;20.90;64.80
13458;DHT22;6801;53.018;11.560;2023-06-24T08:15:46;21.00;64.70
13458;DHT22;6801;53.018;11.560;2023-06-24T08:18:13;21.00;64.80
13458;DHT22;6801;53.018;11.560;2023-06-24T08:20:40;21.10;64.20
13458;DHT22;6801;53.018;11.560;2023-06-24T08:23:07;21.30;64.30
13458;DHT22;6801;53.018;11.560;2023-06-24T08:25:35;21.40;64.20
13458;DHT22;6801;53.018;11.560;2023-06-24T08:28:02;21.40;63.20
13458;DHT22;6801;53.018;11.560;2023-06-24T08:30:29;21.50;63.00
13458;DHT22;6801;53.018;11.560;2023-06-24T08:32:57;21.50;62.10
13458;DHT22;6801;53.018;11.560;2023-06-24T08:35:24;21.50;62.50
13458;DHT22;6801;53.018;11.560;2023-06-24T08:37:51;21.60;62.30
13458;DHT22;6801;53.018;11.560;2023-06-24T08:40:18;21.70;62.20
13458;DHT22;6801;53.018;11.560;2023-06-24T08:42:46;21.80;61.80
13458;DHT22;6801;53.018;11.560;2023-06-24T08:45:13;21.90;61.20
13458;DHT22;6801;53.018;11.560;2023-06-24T08:47:40;21.90;61.40
13458;DHT22;6801;53.018;11.560;2023-06-24T08:50:11;22.00;61.10
13458;DHT22;6801;53.018;11.560;2023-06-24T08:52:42;22.00;60.50
13458;DHT22;6801;53.018;11.560;2023-06-24T08:55:13;22.10;60.30
13458;DHT22;6801;53.018;11.560;2023-06-24T08:57:40;22.10;60.00
13458;DHT22;6801;53.018;11.560;2023-06-24T09:00:08;22.20;59.10
13458;DHT22;6801;53.018;11.560;2023-06-24T09:02:36;22.30;58.60
13458;DHT22;6801;53.018;11.560;2023-06-24T09:05:04;22.30;58.00
13458;DHT22;6801;53.018;11.560;2023-06-24T09:07:33;22.40;58.60
13458;DHT22;6801;53.018;11.560;2023-06-24T09:10:00;22.50;59.20
13458;DHT22;6801;53.018;11.560;2023-06-24T09:12:28;22.50;59.40
13458;DHT22;6801;53.018;11.560;2023-06-24T09:14:58;22.60;57.80
13458;DHT22;6801;53.018;11.560;2023-06-24T09:17:25;22.60;57.30
13458;DHT22;6801;53.018;11.560;2023-06-24T09:19:53;22.70;57.90
13458;DHT22;6801;53.018;11.560;2023-06-24T09:22:20;22.80;58.30
13458;DHT22;6801;53.018;11.560;2023-06-24T09:24:48;22.90;58.00
13458;DHT22;6801;53.018;11.560;2023-06-24T09:27:17;23.00;57.80
13458;DHT22;6801;53.018;11.560;2023-06-24T09:29:45;23.00;56.40
13458;DHT22;6801;53.018;11.560;2023-06-24T09:32:12;23.10;56.10
13458;DHT22;6801;53.018;11.560;2023-06-24T09:34:40;23.10;56.50
13458;DHT22;6801;53.018;11.560;2023-06-24T09:37:07;23.30;57.30
13458;DHT22;6801;53.018;11.560;2023-06-24T09:39:39;23.30;56.30
13458;DHT22;6801;53.018;11.560;2023-06-24T09:42:07;23.40;56.70
13458;DHT22;6801;53.018;11.560;2023-06-24T09:44:35;23.50;56.60
13458;DHT22;6801;53.018;11.560;2023-06-24T09:47:02;23.60;56.50
13458;DHT22;6801;53.018;11.560;2023-06-24T09:49:29;23.70;56.50
13458;DHT22;6801;53.018;11.560;2023-06-24T09:51:57;23.90;56.40
13458;DHT22;6801;53.018;11.560;2023-06-24T09:54:26;23.90;56.20
13458;DHT22;6801;53.018;11.560;2023-06-24T09:56:55;24.00;56.00
13458;DHT22;6801;53.018;11.560;2023-06-24T09:59:28;24.10;55.60
13458;DHT22;6801;53.018;11.560;2023-06-24T10:01:57;24.20;55.30
13458;DHT22;6801;53.018;11.560;2023-06-24T10:04:25;24.40;55.10
13458;DHT22;6801;53.018;11.560;2023-06-24T10:06:53;24.40;53.50
13458;DHT22;6801;53.018;11.560;2023-06-24T10:09:20;24.40;53.60
13458;DHT22;6801;53.018;11.560;2023-06-24T10:11:47;24.50;53.00
13458;DHT22;6801;53.018;11.560;2023-06-24T10:14:15;24.50;53.40
13458;DHT22;6801;53.018;11.560;2023-06-24T10:16:43;24.60;53.20
13458;DHT22;6801;53.018;11.560;2023-06-24T10:19:10;24.60;52.60
13458;DHT22;6801;53.018;11.560;2023-06-24T10:21:46;24.70;53.30
13458;DHT22;6801;53.018;11.560;2023-06-24T10:24:19;24.80;52.80
13458;DHT22;6801;53.018;11.560;2023-06-24T10:26:54;24.90;52.00
13458;DHT22;6801;53.018;11.560;2023-06-24T10:29:31;24.90;50.70
13458;DHT22;6801;53.018;11.560;2023-06-24T10:32:05;25.00;51.70
13458;DHT22;6801;53.018;11.560;2023-06-24T10:34:38;25.00;50.90
13458;DHT22;6801;53.018;11.560;2023-06-24T10:37:09;25.10;51.50
13458;DHT22;6801;53.018;11.560;2023-06-24T10:39:47;25.20;51.70
13458;DHT22;6801;53.018;11.560;2023-06-24T10:42:36;25.30;51.60
13458;DHT22;6801;53.018;11.560;2023-06-24T10:45:17;25.40;51.30
13458;DHT22;6801;53.018;11.560;2023-06-24T10:47:47;25.50;51.10
13458;DHT22;6801;53.018;11.560;2023-06-24T10:50:15;25.50;48.50
13458;DHT22;6801;53.018;11.560;2023-06-24T10:52:43;25.50;48.70
13458;DHT22;6801;53.018;11.560;2023-06-24T10:55:13;25.60;50.00
13458;DHT22;6801;53.018;11.560;2023-06-24T10:57:40;25.70;50.40
13458;DHT22;6801;53.018;11.560;2023-06-24T11:00:08;25.90;50.60
13458;DHT22;6801;53.018;11.560;2023-06-24T11:02:35;26.00;49.90
13458;DHT22;6801;53.018;11.560;2023-06-24T11:05:05;26.00;49.50
13458;DHT22;6801;53.018;11.560;2023-06-24T11:07:33;26.10;48.80
13458;DHT22;6801;53.018;11.560;2023-06-24T11:10:03;26.20;48.20
13458;DHT22;6801;53.018;11.560;2023-06-24T11:12:32;26.20;48.30
13458;DHT22;6801;53.018;11.560;2023-06-24T11:15:02;26.30;48.70
13458;DHT22;6801;53.018;11.560;2023-06-24T11:17:29;26.40;48.90
13458;DHT22;6801;53.018;11.560;2023-06-24T11:19:57;26.50;49.30
13458;DHT22;6801;53.018;11.560;2023-06-24T11:22:27;26.60;48.50
13458;DHT22;6801;53.018;11.560;2023-06-24T11:24:55;26.70;49.40
13458;DHT22;6801;53.018;11.560;2023-06-24T11:27:26;26.80;49.30
13458;DHT22;6801;53.018;11.560;2023-06-24T11:29:54;27.00;49.00
13458;DHT22;6801;53.018;11.560;2023-06-24T11:32:24;27.10;48.80
13458;DHT22;6801;53.018;11.560;2023-06-24T11:34:51;27.10;48.50
13458;DHT22;6801;53.018;11.560;2023-06-24T11:37:19;27.20;48.30
13458;DHT22;6801;53.018;11.560;2023-06-24T11:40:00;27.30;47.40
13458;DHT22;6801;53.018;11.560;2023-06-24T11:42:30;27.40;47.60
13458;DHT22;6801;53.018;11.560;2023-06-24T11:45:01;27.40;47.40
13458;DHT22;6801;53.018;11.560;2023-06-24T11:47:31;27.50;48.20
13458;DHT22;6801;53.018;11.560;2023-06-24T11:49:59;27.60;46.50
13458;DHT22;6801;53.018;11.560;2023-06-24T11:52:33;27.70;47.40
13458;DHT22;6801;53.018;11.560;2023-06-24T11:55:11;27.80;46.60
13458;DHT22;6801;53.018;11.560;2023-06-24T11:57:50;27.90;47.00
13458;DHT22;6801;53.018;11.560;2023-06-24T12:00:19;27.90;46.80
13458;DHT22;6801;53.018;11.560;2023-06-24T12:02:48;28.00;47.70
13458;DHT22;6801;53.018;11.560;2023-06-24T12:05:20;28.00;47.00
13458;DHT22;6801;53.018;11.560;2023-06-24T12:07:53;28.10;45.80
13458;DHT22;6801;53.018;11.560;2023-06-24T12:10:21;28.20;46.50
13458;DHT22;6801;53.018;11.560;2023-06-24T12:12:48;28.20;46.90
13458;DHT22;6801;53.018;11.560;2023-06-24T12:15:15;28.30;46.40
13458;DHT22;6801;53.018;11.560;2023-06-24T12:17:42;28.50;46.80
13458;DHT22;6801;53.018;11.560;2023-06-24T12:20:10;28.50;44.40
13458;DHT22;6801;53.018;11.560;2023-06-24T12:22:39;28.50;43.30
13458;DHT22;6801;53.018;11.560;2023-06-24T12:25:07;28.40;43.70
13458;DHT22;6801;53.018;11.560;2023-06-24T12:27:35;28.60;45.30
13458;DHT22;6801;53.018;11.560;2023-06-24T12:30:03;28.70;46.10
13458;DHT22;6801;53.018;11.560;2023-06-24T12:32:30;28.70;46.10
13458;DHT22;6801;53.018;11.560;2023-06-24T12:34:57;28.80;46.50
13458;DHT22;6801;53.018;11.560;2023-06-24T12:37:24;28.90;46.10
13458;DHT22;6801;53.018;11.560;2023-06-24T12:39:51;29.00;46.10
13458;DHT22;6801;53.018;11.560;2023-06-24T12:42:18;29.10;44.40
13458;DHT22;6801;53.018;11.560;2023-06-24T12:44:46;29.10;44.50
13458;DHT22;6801;53.018;11.560;2023-06-24T12:47:14;29.20;45.20
13458;DHT22;6801;53.018;11.560;2023-06-24T12:49:41;29.20;44.40
13458;DHT22;6801;53.018;11.560;2023-06-24T12:52:07;29.30;45.30
13458;DHT22;6801;53.018;11.560;2023-06-24T12:54:34;29.30;45.30
13458;DHT22;6801;53.018;11.560;2023-06-24T12:57:02;29.40;45.90
13458;DHT22;6801;53.018;11.560;2023-06-24T12:59:29;29.50;45.10
13458;DHT22;6801;53.018;11.560;2023-06-24T13:01:57;29.50;45.40
13458;DHT22;6801;53.018;11.560;2023-06-24T13:04:24;29.60;44.70
13458;DHT22;6801;53.018;11.560;2023-06-24T13:06:52;29.70;45.20
13458;DHT22;6801;53.018;11.560;2023-06-24T13:09:19;29.70;44.60
13458;DHT22;6801;53.018;11.560;2023-06-24T13:11:47;29.80;44.90
13458;DHT22;6801;53.018;11.560;2023-06-24T13:14:15;29.80;45.00
13458;DHT22;6801;53.018;11.560;2023-06-24T13:16:42;29.90;44.80
13458;DHT22;6801;53.018;11.560;2023-06-24T13:19:10;29.90;44.90
13458;DHT22;6801;53.018;11.560;2023-06-24T13:21:38;29.90;44.80
13458;DHT22;6801;53.018;11.560;2023-06-24T13:24:07;29.90;43.70
13458;DHT22;6801;53.018;11.560;2023-06-24T13:26:34;29.80;43.70
13458;DHT22;6801;53.018;11.560;2023-06-24T13:29:01;29.70;43.00
13458;DHT22;6801;53.018;11.560;2023-06-24T13:31:29;29.50;42.20
13458;DHT22;6801;53.018;11.560;2023-06-24T13:33:56;29.40;42.90
13458;DHT22;6801;53.018;11.560;2023-06-24T13:36:31;29.50;44.60
13458;DHT22;6801;53.018;11.560;2023-06-24T13:39:01;29.50;44.40
13458;DHT22;6801;53.018;11.560;2023-06-24T13:41:28;29.50;45.50
13458;DHT22;6801;53.018;11.560;2023-06-24T13:43:58;29.60;44.40
13458;DHT22;6801;53.018;11.560;2023-06-24T13:46:25;29.60;44.90
13458;DHT22;6801;53.018;11.560;2023-06-24T13:48:52;29.70;44.80
13458;DHT22;6801;53.018;11.560;2023-06-24T13:51:19;29.80;45.20
13458;DHT22;6801;53.018;11.560;2023-06-24T13:53:48;29.90;44.70
13458;DHT22;6801;53.018;11.560;2023-06-24T13:56:16;29.90;44.90
13458;DHT22;6801;53.018;11.560;2023-06-24T13:58:43;30.00;45.20
13458;DHT22;6801;53.018;11.560;2023-06-24T14:01:10;30.00;44.60
13458;DHT22;6801;53.018;11.560;2023-06-24T14:03:37;30.10;43.80
13458;DHT22;6801;53.018;11.560;2023-06-24T14:06:05;30.10;43.20
13458;DHT22;6801;53.018;11.560;2023-06-24T14:08:33;30.10;42.20
13458;DHT22;6801;53.018;11.560;2023-06-24T14:11:02;30.10;42.10
13458;DHT22;6801;53.018;11.560;2023-06-24T14:13:29;30.20;44.10
13458;DHT22;6801;53.018;11.560;2023-06-24T14:15:57;30.30;44.80
13458;DHT22;6801;53.018;11.560;2023-06-24T14:18:24;30.40;44.80
13458;DHT22;6801;53.018;11.560;2023-06-24T14:20:51;30.40;43.40
13458;DHT22;6801;53.018;11.560;2023-06-24T14:23:18;30.50;43.80
13458;DHT22;6801;53.018;11.560;2023-06-24T14:25:46;30.50;42.00
13458;DHT22;6801;53.018;11.560;2023-06-24T14:28:14;30.40;42.10
13458;DHT22;6801;53.018;11.560;2023-06-24T14:30:41;30.50;42.20
13458;DHT22;6801;53.018;11.560;2023-06-24T14:33:09;30.60;42.10
13458;DHT22;6801;53.018;11.560;2023-06-24T14:35:35;30.60;41.80
13458;DHT22;6801;53.018;11.560;2023-06-24T14:38:02;30.60;41.50
13458;DHT22;6801;53.018;11.560;2023-06-24T14:40:29;30.60;40.90
13458;DHT22;6801;53.018;11.560;2023-06-24T14:42:56;30.60;42.00
13458;DHT22;6801;53.018;11.560;2023-06-24T14:45:25;30.70;42.60
13458;DHT22;6801;53.018;11.560;2023-06-24T14:47:52;30.80;43.10
13458;DHT22;6801;53.018;11.560;2023-06-24T14:50:19;30.90;42.90
13458;DHT22;6801;53.018;11.560;2023-06-24T14:52:46;30.90;42.50
13458;DHT22;6801;53.018;11.560;2023-06-24T14:55:13;30.90;42.40
13458;DHT22;6801;53.018;11.560;2023-06-24T14:57:40;31.00;42.30
13458;DHT22;6801;53.018;11.560;2023-06-24T15:00:08;31.00;41.80
13458;DHT22;6801;53.018;11.560;2023-06-24T15:02:38;31.00;42.70
13458;DHT22;6801;53.018;11.560;2023-06-24T15:05:05;31.10;42.80
13458;DHT22;6801;53.018;11.560;2023-06-24T15:07:32;31.10;42.60
13458;DHT22;6801;53.018;11.560;2023-06-24T15:09:59;31.20;43.30
13458;DHT22;6801;53.018;11.560;2023-06-24T15:12:26;31.20;43.20
13458;DHT22;6801;53.018;11.560;2023-06-24T15:14:53;31.30;41.80
13458;DHT22;6801;53.018;11.560;2023-06-24T15:17:21;31.20;40.20
13458;DHT22;6801;53.018;11.560;2023-06-24T15:19:50;31.20;41.30
13458;DHT22;6801;53.018;11.560;2023-06-24T15:22:17;31.30;41.90
13458;DHT22;6801;53.018;11.560;2023-06-24T15:24:44;31.30;41.10
13458;DHT22;6801;53.018;11.560;2023-06-24T15:27:11;31.20;40.80
13458;DHT22;6801;53.018;11.560;2023-06-24T15:29:38;31.20;41.80
13458;DHT22;6801;53.018;11.560;2023-06-24T15:32:06;31.20;41.80
13458;DHT22;6801;53.018;11.560;2023-06-24T15:34:33;31.20;42.30
13458;DHT22;6801;53.018;11.560;2023-06-24T15:37:01;31.20;42.60
13458;DHT22;6801;53.018;11.560;2023-06-24T15:39:28;31.20;43.00